Flight Track Log - Related Links

Times and Time Zones

All times are in EDT time to prevent confusion due to time zone crossing. See the SWA127 flight status page for this flight to view local times or setup timezone preferences in your user account.

Time Position Orientation Groundspeed Altitude Reporting Facility
EDT Latitude Longitude Course Direction KTS MPH feet Rate Location/Type
Wed 08:49:07 AM 39.3167 -94.7167 339° North 147 169 2,100  Level Kansas City TRACON
Wed 08:49:55 AM 39.3500 -94.7333 339° North 171 197 4,500 3,765 Climbing Kansas City TRACON
Wed 08:50:49 AM 39.4000 -94.7500 346° North 217 250 8,500 3,760 Climbing Kansas City TRACON
Wed 08:51:10 AM 39.3997 -94.7628 268° West 204 235 9,200 1,157 Climbing Kansas City Center
Wed 08:52:12 AM 39.4003 -94.8442 271° West 250 288 10,100 726 Climbing Kansas City Center
Wed 08:53:14 AM 39.3161 -94.8669 192° South 332 382 10,700 2,341 Climbing Kansas City Center
Wed 08:54:15 AM 39.2075 -94.8747 183° South 344 396 14,900 3,484 Climbing Kansas City Center
Wed 08:55:18 AM 39.1114 -94.8875 186° South 358 412 17,900 3,145 Climbing Kansas City Center
Wed 08:56:19 AM 39.0108 -94.8994 185° South 372 428 21,400 2,508 Climbing Kansas City Center
Wed 08:57:20 AM 38.8878 -94.9131 185° South 397 457 23,000 1,805 Climbing Kansas City Center
Wed 08:58:22 AM 38.7786 -94.9253 185° South 407 468 25,100 2,177 Climbing Kansas City Center
Wed 08:59:24 AM 38.6708 -94.9539 192° South 410 472 27,500 2,479 Climbing Kansas City Center
Wed 09:00:23 AM 38.5461 -94.9981 195° South 413 475 30,100 2,488 Climbing Kansas City Center
Wed 09:01:27 AM 38.4386 -95.0358 195° South 417 480 32,600 2,049 Climbing Kansas City Center
Wed 09:02:26 AM 38.3142 -95.0789 195° South 414 476 34,300 1,659 Climbing Kansas City Center
Wed 09:03:30 AM 38.2053 -95.1150 195° South 418 481 36,000 1,016 Climbing Kansas City Center
Wed 09:04:30 AM 38.0983 -95.1519 195° South 415 478 36,400 1,113 Climbing Kansas City Center
Wed 09:05:34 AM 37.9750 -95.1953 195° South 413 475 38,300 1,561 Climbing Kansas City Center
Wed 09:06:33 AM 37.8689 -95.2294 194° South 408 470 39,600 829 Climbing Kansas City Center
Wed 09:07:37 AM 37.7608 -95.2700 197° South 406 467 40,000 194 Climbing Kansas City Center
Wed 09:08:37 AM 37.6522 -95.3056 195° South 403 464 40,000  Level Kansas City Center
Wed 09:09:38 AM 37.5228 -95.3492 195° South 401 461 40,000  Level Kansas City Center
Wed 09:10:41 AM 37.4156 -95.3847 195° South 398 458 40,000  Level Kansas City Center
Wed 09:11:42 AM 37.3092 -95.4194 195° South 395 455 40,000  Level Kansas City Center
Wed 09:12:43 AM 37.2028 -95.4556 195° South 395 455 40,000  Level Kansas City Center
Wed 09:13:44 AM 37.0953 -95.4922 195° South 397 457 40,000  Level Kansas City Center
Wed 09:14:47 AM 36.9867 -95.5275 195° South 402 463 40,000  Level Kansas City Center
Wed 09:15:48 AM 36.8786 -95.5636 195° South 402 463 40,000  Level Kansas City Center
Wed 09:16:49 AM 36.7700 -95.5994 195° South 403 464 40,000  Level Kansas City Center
Wed 09:17:52 AM 36.6392 -95.6425 195° South 405 466 40,000  Level Kansas City Center
Wed 09:18:53 AM 36.5444 -95.6744 195° South 406 467 40,000  Level Kansas City Center
Wed 09:19:55 AM 36.4339 -95.7097 194° South 408 470 40,000  Level Kansas City Center
Wed 09:20:55 AM 36.3006 -95.7539 195° South 412 474 40,000  Level Kansas City Center
Wed 09:21:59 AM 36.2006 -95.7867 195° South 415 478 40,000  Level Kansas City Center
Wed 09:23:01 AM 36.0892 -95.8256 196° South 416 479 40,000  Level Kansas City Center
Wed 09:24:01 AM 35.9594 -95.8717 196° South 409 471 40,000  Level Kansas City Center
Wed 09:25:04 AM 35.8531 -95.9078 195° South 400 460 40,000  Level Kansas City Center
Wed 09:26:05 AM 35.7456 -95.9453 196° South 400 460 40,000  Level Kansas City Center
Wed 09:27:05 AM 35.6372 -95.9828 196° South 403 464 40,000  Level Kansas City Center
Wed 09:27:54 AM 35.5383 -96.0183 196° South 413 475 40,000  Level Fort Worth Center
Wed 09:28:54 AM 35.4508 -96.0453 194° South 413 475 40,000  Level Fort Worth Center
Wed 09:29:54 AM 35.3344 -96.0853 196° South 407 468 40,000  Level Fort Worth Center
Wed 09:30:54 AM 35.2306 -96.1225 196° South 396 456 40,000  Level Fort Worth Center
Wed 09:31:54 AM 35.1267 -96.1594 196° South 396 456 40,000  Level Fort Worth Center
Wed 09:32:54 AM 35.0228 -96.1942 195° South 396 456 40,000  Level Fort Worth Center
Wed 09:33:54 AM 34.9211 -96.2311 197° South 391 450 40,000  Level Fort Worth Center
Wed 09:34:54 AM 34.8192 -96.2653 195° South 386 444 40,000  Level Fort Worth Center
Wed 09:35:54 AM 34.7172 -96.2994 195° South 386 444 40,000  Level Fort Worth Center
Wed 09:36:54 AM 34.6153 -96.3336 195° South 381 438 40,000  Level Fort Worth Center
Wed 09:37:54 AM 34.5153 -96.3675 196° South 381 438 40,000  Level Fort Worth Center
Wed 09:38:54 AM 34.4156 -96.4014 196° South 381 438 40,000  Level Fort Worth Center
Wed 09:39:54 AM 34.3156 -96.4353 196° South 381 438 40,000  Level Fort Worth Center
Wed 09:40:54 AM 34.2158 -96.4692 196° South 376 433 40,000  Level Fort Worth Center
Wed 09:41:54 AM 34.1178 -96.5028 196° South 376 433 40,000  Level Fort Worth Center
Wed 09:42:54 AM 34.0117 -96.5367 195° South 376 433 40,000  Level Fort Worth Center
Wed 09:43:54 AM 33.9097 -96.5725 196° South 376 433 40,000  Level Fort Worth Center
Wed 09:44:54 AM 33.8075 -96.6036 194° South 375 432 40,000  Level Fort Worth Center
Wed 09:45:54 AM 33.7056 -96.6369 195° South 381 438 40,000  Level Fort Worth Center
Wed 09:46:54 AM 33.5994 -96.6728 196° South 381 438 40,000  Level Fort Worth Center
Wed 09:47:54 AM 33.4972 -96.7061 195° South 381 438 40,000 -500 Level Fort Worth Center
Wed 09:48:54 AM 33.3953 -96.7367 194° South 381 438 39,000 -850 Descending Fort Worth Center
Wed 09:49:54 AM 33.2908 -96.7425 183° South 397 457 38,300 -850 Descending Fort Worth Center
Wed 09:50:54 AM 33.1739 -96.7408 179° South 416 479 37,300 -650 Descending Fort Worth Center
Wed 09:51:54 AM 33.0528 -96.7417 180° South 429 494 37,000 -150 Descending Fort Worth Center
Wed 09:52:54 AM 32.9339 -96.7425 180° South 429 494 37,000  Level Fort Worth Center
Wed 09:53:54 AM 32.8025 -96.7436 180° South 429 494 37,000  Level Fort Worth Center
Wed 09:54:54 AM 32.6833 -96.7444 180° South 429 494 37,000  Level Fort Worth Center
Wed 09:55:54 AM 32.5644 -96.7478 181° South 435 501 37,000  Level Fort Worth Center
Wed 09:56:54 AM 32.4433 -96.7464 179° South 435 501 37,000  Level Fort Worth Center
Wed 09:57:54 AM 32.3222 -96.7472 180° South 441 507 37,000  Level Fort Worth Center
Wed 09:58:54 AM 32.2011 -96.7481 180° South 441 507 37,000  Level Fort Worth Center
Wed 09:59:54 AM 32.0800 -96.7489 180° South 436 502 37,000  Level Fort Worth Center
Wed 10:00:54 AM 31.9717 -96.7547 183° South 436 502 37,000 -200 Level Fort Worth Center
Wed 10:01:54 AM 31.8400 -96.7506 178° South 434 499 36,600 -755 Descending Fort Worth Center
Wed 10:03:25 AM 31.6597 -96.7533 181° South 436 502 35,100 -941 Descending Houston Center
Wed 10:04:27 AM 31.5350 -96.7531 180° South 441 507 34,200 -919 Descending Houston Center
Wed 10:05:29 AM 31.4075 -96.7547 181° South 449 517 33,200 -968 Descending Houston Center
Wed 10:06:31 AM 31.2814 -96.7247 169° South 461 531 32,200 -968 Descending Houston Center
Wed 10:07:33 AM 31.1564 -96.6619 157° South 476 548 31,200 -927 Descending Houston Center
Wed 10:08:34 AM 31.0306 -96.6003 157° South 482 555 30,300 -927 Descending Houston Center
Wed 10:09:36 AM 30.9047 -96.5397 158° South 482 555 29,300 -1,984 Descending Houston Center
Wed 10:10:38 AM 30.7783 -96.4800 158° South 483 556 26,200 -3,048 Descending Houston Center
Wed 10:11:40 AM 30.6558 -96.4206 157° South 472 543 23,000 -3,242 Descending Houston Center
Wed 10:12:42 AM 30.5217 -96.3564 158° South 440 506 19,500 -2,972 Descending Houston Center
Wed 10:13:27 AM 30.4394 -96.3175 158° South 416 479 17,700 -2,419 Descending Houston Center
Wed 10:13:44 AM 30.4139 -96.3061 159° South 416 479 17,000 -3,000 Descending Houston Center
Wed 10:14:41 AM 30.3150 -96.2586 157° South 400 460 14,000 -2,855 Descending Houston Center
Wed 10:15:48 AM 30.2081 -96.2086 158° South 392 451 11,100 -1,359 Descending Houston Center
Wed 10:16:49 AM 30.1069 -96.1542 155° Southeast 368 423 11,100  Level Houston Center
Wed 10:17:50 AM 30.0422 -96.0600 128° Southeast 369 425 11,100  Level Houston Center
Wed 10:18:51 AM 29.9814 -95.9633 126° Southeast 373 429 11,100 -49 Level Houston Center
Wed 10:19:52 AM 29.9225 -95.8664 125° Southeast 371 427 11,000 -49 Descending Houston Center
Wed 10:20:53 AM 29.8606 -95.7606 124° Southeast 373 429 11,000 -51 Level Houston Center
Wed 10:21:49 AM 29.8089 -95.6750 125° Southeast 376 433 10,900 -590 Descending Houston Center
Wed 10:22:55 AM 29.7453 -95.5717 125° Southeast 314 361 9,800 -1,254 Descending Houston Center
Wed 10:24:03 AM 29.6911 -95.4825 125° Southeast 313 360 8,100 -1,477 Descending Houston Center
Wed 10:25:05 AM 29.6428 -95.4039 125° Southeast 304 350 6,600 -1,138 Descending Houston Center
Wed 10:25:59 AM 29.5917 -95.3400 133° Southeast 259 298 5,900 -783 Descending Houston Center
Wed 10:27:00 AM 29.5447 -95.2856 135° Southeast 234 269 5,100 -885 Descending Houston Center
Wed 10:28:01 AM 29.4958 -95.2339 137° Southeast 238 274 4,100 -885 Descending Houston Center
Wed 10:29:02 AM 29.4628 -95.1708 121° Southeast 225 259 3,300 -836 Descending Houston Center
Wed 10:30:03 AM 29.5033 -95.1344 38° Northeast 176 203 2,400 -537 Descending Houston Center
Wed 10:31:16 AM 29.5439 -95.1594 332° Northwest 170 196 2,100 -233 Descending Houston Center
Wed 10:32:12 AM 29.5719 -95.1933 314° West 130 150 1,900 -410 Descending Houston Center
Wed 10:33:13 AM 29.5956 -95.2219 314° West 116 133 1,300 -615 Descending Houston Center
Wed 10:34:09 AM 29.6167 -95.2458 315° West 116 133 700 -643 Descending Houston Center

Login

Don't have an account? Register now (free) for customized features, flight alerts, and more!